createdAt,value
2018-11-06T00:00:16.925Z,9.00
2018-11-06T00:02:47.422Z,8.80
2018-11-06T00:05:18.121Z,8.80
2018-11-06T00:07:47.346Z,8.60
2018-11-06T00:10:16.562Z,8.80
2018-11-06T00:12:45.798Z,8.90
2018-11-06T00:15:15.010Z,9.00
2018-11-06T00:17:44.289Z,8.90
2018-11-06T00:20:14.547Z,9.00
2018-11-06T00:22:43.803Z,8.70
2018-11-06T00:25:13.902Z,8.70
2018-11-06T00:27:43.132Z,8.70
2018-11-06T00:30:13.560Z,8.60
2018-11-06T00:32:43.325Z,8.80
2018-11-06T00:35:13.911Z,8.70
2018-11-06T00:37:43.994Z,8.70
2018-11-06T00:40:13.554Z,8.80
2018-11-06T00:42:42.807Z,8.80
2018-11-06T00:45:13.548Z,8.90
2018-11-06T00:47:42.764Z,8.90
2018-11-06T00:50:12.978Z,8.80
2018-11-06T00:52:43.158Z,8.80
2018-11-06T00:55:12.587Z,8.50
2018-11-06T00:57:43.724Z,8.50
2018-11-06T01:00:15.154Z,8.70
2018-11-06T01:02:44.587Z,8.80
2018-11-06T01:05:14.682Z,8.70
2018-11-06T01:07:44.824Z,8.50
2018-11-06T01:10:14.114Z,8.30
2018-11-06T01:12:43.331Z,8.30
2018-11-06T01:15:13.892Z,8.20
2018-11-06T01:17:44.086Z,8.50
2018-11-06T01:20:15.309Z,8.60
2018-11-06T01:22:44.914Z,8.50
2018-11-06T01:25:14.508Z,8.50
2018-11-06T01:27:43.838Z,8.60
2018-11-06T01:30:17.758Z,8.70
2018-11-06T01:32:47.438Z,8.70
2018-11-06T01:35:17.247Z,8.70
2018-11-06T01:37:47.078Z,8.60
2018-11-06T01:40:17.498Z,8.60
2018-11-06T01:42:47.417Z,8.50
2018-11-06T01:45:17.421Z,8.60
2018-11-06T01:47:46.650Z,8.60
2018-11-06T01:50:17.097Z,8.50
2018-11-06T01:52:47.219Z,8.50
2018-11-06T01:55:16.463Z,8.60
2018-11-06T01:57:45.675Z,8.50
2018-11-06T02:00:16.746Z,8.30
2018-11-06T02:02:46.130Z,8.30
2018-11-06T02:05:16.769Z,8.10
2018-11-06T02:07:47.289Z,8.20
2018-11-06T02:10:17.018Z,8.20
2018-11-06T02:12:47.008Z,8.10
2018-11-06T02:15:16.250Z,7.90
2018-11-06T02:17:46.029Z,8.10
2018-11-06T02:20:15.868Z,8.10
2018-11-06T02:22:45.755Z,8.10
2018-11-06T02:25:15.410Z,7.90
2018-11-06T02:27:44.610Z,7.80
2018-11-06T02:30:15.522Z,7.90
2018-11-06T02:32:45.536Z,8.20
2018-11-06T02:35:14.787Z,8.20
2018-11-06T02:37:44.046Z,8.30
2018-11-06T02:40:14.453Z,8.30
2018-11-06T02:42:43.980Z,8.20
2018-11-06T02:45:13.883Z,7.80
2018-11-06T02:47:43.610Z,7.80
2018-11-06T02:50:13.710Z,8.00
2018-11-06T02:52:43.560Z,8.00
2018-11-06T02:55:13.062Z,7.90
2018-11-06T02:57:42.968Z,8.10
2018-11-06T03:00:14.512Z,8.10
2018-11-06T03:02:44.542Z,8.20
2018-11-06T03:05:13.841Z,8.20
2018-11-06T03:07:43.046Z,8.20
2018-11-06T03:10:13.345Z,8.20
2018-11-06T03:12:43.283Z,8.10
2018-11-06T03:15:13.602Z,7.90
2018-11-06T03:17:42.830Z,7.80
2018-11-06T03:20:12.731Z,7.70
2018-11-06T03:22:42.639Z,7.50
2018-11-06T03:25:12.264Z,7.70
2018-11-06T03:27:41.762Z,7.80
2018-11-06T03:30:14.334Z,7.60
2018-11-06T03:32:43.776Z,7.50
2018-11-06T03:35:13.963Z,7.50
2018-11-06T03:37:43.158Z,7.50
2018-11-06T03:40:12.976Z,7.60
2018-11-06T03:42:43.021Z,7.70
2018-11-06T03:45:13.242Z,7.70
2018-11-06T03:47:42.443Z,7.70
2018-11-06T03:50:12.818Z,7.90
2018-11-06T03:52:42.039Z,8.00
2018-11-06T03:55:11.243Z,7.80
2018-11-06T03:57:40.499Z,7.80
2018-11-06T04:00:13.190Z,7.60
2018-11-06T04:02:42.945Z,7.50
2018-11-06T04:05:12.663Z,7.60
2018-11-06T04:07:41.863Z,7.60
2018-11-06T04:10:11.958Z,7.70
2018-11-06T04:12:41.905Z,7.60
2018-11-06T04:15:12.706Z,7.80
2018-11-06T04:17:42.958Z,7.80
2018-11-06T04:20:12.446Z,7.90
2018-11-06T04:22:42.492Z,7.60
2018-11-06T04:25:11.738Z,7.20
2018-11-06T04:27:40.979Z,7.30
2018-11-06T04:30:12.330Z,7.20
2018-11-06T04:32:42.426Z,7.40
2018-11-06T04:35:12.578Z,7.60
2018-11-06T04:37:42.191Z,7.40
2018-11-06T04:40:13.218Z,7.50
2018-11-06T04:42:42.454Z,7.50
2018-11-06T04:45:12.538Z,7.70
2018-11-06T04:47:42.040Z,7.60
2018-11-06T04:50:11.630Z,7.30
2018-11-06T04:52:41.481Z,7.20
2018-11-06T04:55:11.995Z,7.20
2018-11-06T04:57:41.707Z,7.40
2018-11-06T05:00:12.862Z,7.60
2018-11-06T05:02:42.486Z,7.70
2018-11-06T05:05:12.162Z,7.40
2018-11-06T05:07:41.501Z,7.20
2018-11-06T05:10:13.127Z,7.10
2018-11-06T05:12:42.462Z,7.30
2018-11-06T05:15:13.766Z,7.30
2018-11-06T05:17:43.419Z,7.30
2018-11-06T05:20:15.760Z,7.30
2018-11-06T05:22:45.777Z,7.20
2018-11-06T05:25:15.597Z,7.50
2018-11-06T05:27:44.788Z,7.40
2018-11-06T05:30:14.087Z,7.30
2018-11-06T05:32:44.292Z,7.40
2018-11-06T05:35:13.854Z,7.30
2018-11-06T05:37:43.085Z,7.40
2018-11-06T05:40:23.738Z,7.50
2018-11-06T05:42:52.998Z,7.60
2018-11-06T05:45:22.382Z,7.60
2018-11-06T05:47:51.554Z,7.50
2018-11-06T05:50:20.781Z,7.20
2018-11-06T05:52:50.006Z,7.40
2018-11-06T05:55:19.240Z,7.50
2018-11-06T05:57:48.450Z,7.50
2018-11-06T06:00:18.346Z,7.40
2018-11-06T06:02:47.560Z,7.30
2018-11-06T06:05:16.907Z,7.10
2018-11-06T06:07:46.174Z,7.00
2018-11-06T06:10:15.362Z,7.30
2018-11-06T06:12:44.670Z,7.40
2018-11-06T06:15:13.878Z,7.40
2018-11-06T06:17:43.078Z,7.20
2018-11-06T06:20:12.334Z,7.20
2018-11-06T06:22:41.595Z,7.20
2018-11-06T06:25:10.770Z,7.40
2018-11-06T06:27:39.995Z,7.60
2018-11-06T06:30:11.926Z,7.30
2018-11-06T06:32:41.383Z,7.10
2018-11-06T06:35:10.726Z,7.10
2018-11-06T06:37:39.957Z,7.30
2018-11-06T06:40:11.691Z,7.30
2018-11-06T06:42:41.363Z,7.30
2018-11-06T06:45:12.502Z,7.40
2018-11-06T06:47:41.817Z,7.60
2018-11-06T06:50:12.961Z,7.40
2018-11-06T06:52:42.682Z,7.50
2018-11-06T06:55:13.069Z,7.40
2018-11-06T06:57:43.413Z,7.20
2018-11-06T07:00:14.901Z,7.30
2018-11-06T07:02:44.156Z,7.40
2018-11-06T07:05:14.854Z,7.40
2018-11-06T07:07:44.546Z,7.40
2018-11-06T07:10:15.792Z,7.60
2018-11-06T07:12:45.797Z,7.80
2018-11-06T07:15:16.323Z,7.90
2018-11-06T07:17:46.451Z,8.10
2018-11-06T07:20:16.967Z,8.20
2018-11-06T07:22:46.314Z,8.30
2018-11-06T07:25:15.874Z,8.40
2018-11-06T07:27:46.322Z,8.50
2018-11-06T07:30:17.185Z,8.70
2018-11-06T07:32:46.854Z,9.00
2018-11-06T07:35:16.943Z,9.30
2018-11-06T07:37:46.491Z,9.60
2018-11-06T07:40:18.228Z,9.80
2018-11-06T07:42:47.460Z,10.10
2018-11-06T07:45:18.186Z,10.00
2018-11-06T07:47:47.483Z,9.90
2018-11-06T07:50:16.818Z,10.00
2018-11-06T07:52:46.306Z,9.90
2018-11-06T07:55:16.913Z,9.90
2018-11-06T07:57:46.229Z,10.10
2018-11-06T08:00:18.834Z,10.40
2018-11-06T08:02:48.800Z,10.60
2018-11-06T08:05:18.538Z,11.10
2018-11-06T08:07:48.686Z,11.30
2018-11-06T08:10:18.004Z,11.20
2018-11-06T08:12:48.734Z,11.00
2018-11-06T08:15:18.083Z,11.00
2018-11-06T08:17:47.514Z,10.90
2018-11-06T08:20:17.016Z,10.80
2018-11-06T08:22:46.410Z,10.90
2018-11-06T08:25:16.535Z,11.40
2018-11-06T08:27:46.440Z,11.90
2018-11-06T08:30:15.605Z,12.10
2018-11-06T08:32:45.199Z,12.00
2018-11-06T08:35:15.477Z,12.00
2018-11-06T08:37:44.798Z,11.90
2018-11-06T08:40:15.424Z,11.80
2018-11-06T08:42:44.699Z,11.90
2018-11-06T08:45:15.062Z,12.10
2018-11-06T08:47:44.966Z,12.20
2018-11-06T08:50:15.792Z,12.20
2018-11-06T08:52:45.087Z,12.30
2018-11-06T08:55:15.042Z,12.40
2018-11-06T08:57:44.849Z,12.30
2018-11-06T09:00:16.901Z,12.20
2018-11-06T09:02:47.300Z,12.30
2018-11-06T09:05:17.325Z,12.50
2018-11-06T09:07:46.563Z,12.60
2018-11-06T09:10:16.452Z,12.80
2018-11-06T09:12:45.678Z,12.80
2018-11-06T09:15:15.884Z,12.90
2018-11-06T09:17:45.381Z,12.90
2018-11-06T09:20:15.724Z,12.90
2018-11-06T09:22:45.189Z,12.90
2018-11-06T09:25:15.942Z,12.80
2018-11-06T09:27:45.462Z,12.80
2018-11-06T09:30:16.107Z,12.80
2018-11-06T09:32:45.594Z,12.80
2018-11-06T09:35:15.440Z,12.70
2018-11-06T09:37:44.919Z,12.70
2018-11-06T09:40:17.623Z,12.90
2018-11-06T09:42:47.434Z,13.00
2018-11-06T09:45:17.061Z,13.20
2018-11-06T09:47:46.266Z,13.30
2018-11-06T09:50:17.062Z,13.30
2018-11-06T09:52:46.959Z,13.30
2018-11-06T09:55:17.011Z,13.30
2018-11-06T09:57:46.913Z,13.30
2018-11-06T10:00:17.496Z,13.30
2018-11-06T10:02:46.673Z,13.30
2018-11-06T10:05:16.253Z,13.30
2018-11-06T10:07:45.552Z,13.30
2018-11-06T10:10:16.486Z,13.30
2018-11-06T10:12:46.220Z,13.40
2018-11-06T10:15:17.238Z,13.50
2018-11-06T10:17:47.654Z,13.60
2018-11-06T10:20:17.925Z,13.60
2018-11-06T10:22:47.170Z,13.70
2018-11-06T10:25:16.423Z,13.70
2018-11-06T10:27:45.666Z,13.70
2018-11-06T10:30:17.774Z,13.80
2018-11-06T10:32:47.049Z,13.80
2018-11-06T10:35:16.354Z,13.90
2018-11-06T10:37:45.581Z,14.00
2018-11-06T10:40:19.690Z,14.10
2018-11-06T10:42:49.218Z,14.20
2018-11-06T10:45:19.137Z,14.30
2018-11-06T10:47:48.840Z,14.30
2018-11-06T10:50:18.637Z,14.50
2018-11-06T10:52:48.642Z,14.60
2018-11-06T10:55:17.889Z,14.50
2018-11-06T10:57:47.212Z,14.80
2018-11-06T11:00:21.842Z,14.70
2018-11-06T11:02:56.534Z,15.00
2018-11-06T11:05:27.560Z,15.20
2018-11-06T11:07:56.871Z,15.20
2018-11-06T11:10:26.351Z,15.20
2018-11-06T11:12:55.586Z,15.30
2018-11-06T11:15:25.054Z,15.30
2018-11-06T11:17:54.259Z,15.30
2018-11-06T11:20:23.626Z,15.30
2018-11-06T11:22:52.810Z,15.30
2018-11-06T11:25:22.128Z,15.30
2018-11-06T11:27:51.482Z,15.40
2018-11-06T11:30:20.865Z,15.40
2018-11-06T11:32:50.159Z,15.50
2018-11-06T11:35:19.379Z,15.60
2018-11-06T11:37:48.784Z,15.70
2018-11-06T11:40:18.070Z,15.50
2018-11-06T11:42:47.303Z,15.30
2018-11-06T11:45:16.810Z,15.50
2018-11-06T11:47:46.039Z,15.50
2018-11-06T11:50:16.141Z,15.50
2018-11-06T11:52:45.388Z,15.50
2018-11-06T11:55:14.652Z,15.50
2018-11-06T11:57:43.885Z,15.50
2018-11-06T12:00:14.739Z,15.60
2018-11-06T12:02:43.932Z,15.60
2018-11-06T12:05:13.170Z,15.60
2018-11-06T12:07:42.372Z,15.70
2018-11-06T12:10:12.387Z,15.80
2018-11-06T12:12:41.874Z,15.90
2018-11-06T12:15:13.655Z,16.00
2018-11-06T12:17:43.883Z,16.10
2018-11-06T12:20:13.827Z,16.10
2018-11-06T12:22:43.093Z,16.30
2018-11-06T12:25:12.728Z,16.40
2018-11-06T12:27:42.108Z,16.40
2018-11-06T12:30:13.444Z,16.50
2018-11-06T12:32:42.836Z,16.60
2018-11-06T12:35:12.862Z,16.60
2018-11-06T12:37:42.157Z,16.70
2018-11-06T12:40:12.534Z,16.80
2018-11-06T12:42:42.227Z,16.80
2018-11-06T12:45:15.943Z,16.90
2018-11-06T12:47:45.830Z,16.90
2018-11-06T12:50:15.115Z,17.10
2018-11-06T12:52:44.332Z,17.00
2018-11-06T12:55:14.786Z,17.10
2018-11-06T12:57:44.050Z,17.00
2018-11-06T13:00:15.027Z,17.10
2018-11-06T13:02:44.290Z,17.20
2018-11-06T13:05:13.532Z,17.20
2018-11-06T13:07:43.557Z,17.20
2018-11-06T13:10:13.462Z,17.20
2018-11-06T13:12:43.136Z,17.10
2018-11-06T13:15:12.798Z,17.00
2018-11-06T13:17:42.023Z,16.70
2018-11-06T13:20:12.927Z,16.70
2018-11-06T13:22:42.926Z,16.70
2018-11-06T13:25:12.236Z,16.70
2018-11-06T13:27:42.145Z,16.60
2018-11-06T13:30:14.962Z,16.70
2018-11-06T13:32:45.173Z,16.70
2018-11-06T13:35:14.601Z,16.70
2018-11-06T13:37:43.865Z,16.70
2018-11-06T13:40:14.392Z,16.60
2018-11-06T13:42:43.927Z,16.60
2018-11-06T13:45:17.749Z,16.60
2018-11-06T13:47:46.890Z,16.60
2018-11-06T13:50:16.152Z,16.40
2018-11-06T13:52:45.362Z,16.40
2018-11-06T13:55:15.536Z,16.40
2018-11-06T13:57:45.560Z,16.50
2018-11-06T14:00:16.943Z,16.50
2018-11-06T14:02:46.303Z,16.40
2018-11-06T14:05:15.799Z,16.20
2018-11-06T14:07:45.328Z,16.20
2018-11-06T14:10:14.574Z,16.20
2018-11-06T14:12:44.646Z,16.00
2018-11-06T14:15:13.926Z,16.00
2018-11-06T14:17:43.194Z,16.00
2018-11-06T14:20:14.582Z,16.10
2018-11-06T14:22:44.230Z,16.10
2018-11-06T14:25:13.466Z,16.20
2018-11-06T14:27:42.933Z,16.10
2018-11-06T14:30:14.396Z,16.10
2018-11-06T14:32:43.739Z,16.10
2018-11-06T14:35:13.994Z,16.00
2018-11-06T14:37:43.882Z,16.00
2018-11-06T14:40:13.927Z,16.00
2018-11-06T14:42:43.902Z,16.00
2018-11-06T14:45:14.589Z,15.90
2018-11-06T14:47:43.900Z,15.80
2018-11-06T14:50:13.394Z,15.80
2018-11-06T14:52:42.683Z,15.80
2018-11-06T14:55:13.322Z,15.80
2018-11-06T14:57:42.606Z,15.70
2018-11-06T15:00:16.864Z,15.70
2018-11-06T15:02:48.173Z,15.70
2018-11-06T15:05:18.233Z,15.60
2018-11-06T15:07:47.736Z,15.60
2018-11-06T15:10:17.224Z,15.60
2018-11-06T15:12:46.796Z,15.50
2018-11-06T15:15:16.519Z,15.40
2018-11-06T15:17:46.641Z,15.30
2018-11-06T15:20:19.330Z,15.10
2018-11-06T15:22:48.575Z,15.10
2018-11-06T15:25:18.449Z,15.00
2018-11-06T15:27:47.675Z,15.00
2018-11-06T15:30:17.965Z,15.00
2018-11-06T15:32:47.316Z,14.90
2018-11-06T15:35:18.035Z,14.80
2018-11-06T15:37:47.291Z,14.70
2018-11-06T15:40:17.852Z,14.60
2018-11-06T15:42:47.099Z,14.50
2018-11-06T15:45:17.708Z,14.50
2018-11-06T15:47:47.423Z,14.60
2018-11-06T15:50:17.905Z,14.40
2018-11-06T15:52:48.146Z,14.40
2018-11-06T15:55:17.438Z,14.40
2018-11-06T15:57:46.665Z,14.40
2018-11-06T16:00:19.293Z,14.30
2018-11-06T16:02:48.922Z,14.10
2018-11-06T16:05:18.197Z,14.00
2018-11-06T16:07:47.774Z,14.00
2018-11-06T16:10:18.408Z,13.90
2018-11-06T16:12:47.659Z,13.70
2018-11-06T16:15:16.961Z,13.30
2018-11-06T16:17:46.243Z,13.30
2018-11-06T16:20:18.655Z,13.20
2018-11-06T16:22:48.154Z,13.20
2018-11-06T16:25:18.356Z,13.20
2018-11-06T16:27:47.981Z,13.20
2018-11-06T16:30:18.626Z,13.20
2018-11-06T16:32:47.899Z,13.10
2018-11-06T16:35:18.586Z,13.20
2018-11-06T16:37:48.058Z,13.30
2018-11-06T16:40:17.699Z,13.20
2018-11-06T16:42:47.508Z,13.30
2018-11-06T16:45:18.561Z,13.30
2018-11-06T16:47:48.797Z,13.40
2018-11-06T16:50:18.594Z,13.20
2018-11-06T16:52:47.871Z,13.20
2018-11-06T16:55:17.986Z,13.30
2018-11-06T16:57:47.402Z,13.30
2018-11-06T17:00:18.449Z,13.40
2018-11-06T17:02:47.551Z,13.20
2018-11-06T17:05:16.852Z,13.30
2018-11-06T17:07:46.358Z,13.30
2018-11-06T17:10:16.387Z,13.30
2018-11-06T17:12:45.659Z,13.20
2018-11-06T17:15:16.729Z,13.10
2018-11-06T17:17:46.846Z,13.10
2018-11-06T17:20:16.461Z,13.10
2018-11-06T17:22:45.737Z,13.20
2018-11-06T17:25:16.455Z,13.10
2018-11-06T17:27:45.702Z,13.00
2018-11-06T17:30:16.251Z,12.90
2018-11-06T17:32:45.632Z,12.90
2018-11-06T17:35:16.048Z,12.80
2018-11-06T17:37:45.547Z,12.80
2018-11-06T17:40:16.139Z,12.80
2018-11-06T17:42:45.438Z,12.80
2018-11-06T17:45:16.141Z,12.70
2018-11-06T17:47:45.387Z,12.60
2018-11-06T17:50:15.650Z,12.60
2018-11-06T17:52:45.012Z,12.60
2018-11-06T17:55:15.881Z,12.50
2018-11-06T17:57:45.130Z,12.60
2018-11-06T18:00:18.176Z,12.50
2018-11-06T18:02:47.921Z,12.50
2018-11-06T18:05:18.409Z,12.00
2018-11-06T18:07:47.711Z,11.90
2018-11-06T18:10:18.380Z,12.00
2018-11-06T18:12:47.651Z,12.10
2018-11-06T18:15:16.921Z,12.20
2018-11-06T18:17:46.344Z,12.10
2018-11-06T18:20:15.898Z,11.80
2018-11-06T18:22:45.695Z,11.60
2018-11-06T18:25:15.270Z,11.50
2018-11-06T18:27:44.470Z,11.50
2018-11-06T18:30:15.715Z,11.40
2018-11-06T18:32:44.966Z,11.50
2018-11-06T18:35:15.191Z,11.40
2018-11-06T18:37:44.454Z,11.50
2018-11-06T18:40:16.747Z,11.60
2018-11-06T18:42:46.972Z,11.70
2018-11-06T18:45:16.604Z,11.50
2018-11-06T18:47:45.931Z,11.40
2018-11-06T18:50:16.398Z,11.50
2018-11-06T18:52:46.813Z,11.50
2018-11-06T18:55:16.333Z,11.30
2018-11-06T18:57:45.751Z,11.50
2018-11-06T19:00:20.802Z,11.30
2018-11-06T19:02:51.388Z,11.30
2018-11-06T19:05:21.723Z,11.40
2018-11-06T19:07:51.211Z,11.50
2018-11-06T19:10:20.499Z,11.50
2018-11-06T19:12:49.763Z,11.40
2018-11-06T19:15:21.194Z,11.40
2018-11-06T19:17:51.012Z,11.50
2018-11-06T19:20:20.259Z,11.60
2018-11-06T19:22:49.552Z,11.80
2018-11-06T19:25:18.843Z,11.80
2018-11-06T19:27:48.099Z,11.80
2018-11-06T19:30:18.825Z,11.70
2018-11-06T19:32:48.333Z,11.40
2018-11-06T19:35:17.605Z,11.50
2018-11-06T19:37:46.872Z,11.40
2018-11-06T19:40:17.213Z,11.10
2018-11-06T19:42:47.400Z,11.00
2018-11-06T19:45:16.697Z,11.10
2018-11-06T19:47:46.005Z,11.30
2018-11-06T19:50:16.835Z,11.30
2018-11-06T19:52:46.208Z,11.20
2018-11-06T19:55:16.773Z,11.30
2018-11-06T19:57:46.081Z,11.20
2018-11-06T20:00:22.695Z,11.20
2018-11-06T20:02:53.250Z,11.00
2018-11-06T20:05:22.793Z,11.00
2018-11-06T20:07:52.730Z,11.00
2018-11-06T20:10:23.566Z,11.20
2018-11-06T20:12:53.873Z,11.30
2018-11-06T20:15:23.189Z,11.30
2018-11-06T20:17:52.553Z,11.20
2018-11-06T20:20:24.144Z,11.20
2018-11-06T20:22:53.469Z,11.30
2018-11-06T20:25:22.812Z,11.10
2018-11-06T20:27:52.203Z,11.00
2018-11-06T20:30:22.862Z,10.90
2018-11-06T20:32:52.187Z,11.10
2018-11-06T20:35:21.566Z,11.30
2018-11-06T20:37:50.945Z,11.50
2018-11-06T20:40:21.750Z,11.40
2018-11-06T20:42:51.967Z,11.60
2018-11-06T20:45:21.681Z,11.60
2018-11-06T20:47:51.086Z,11.60
2018-11-06T20:50:21.902Z,11.60
2018-11-06T20:52:51.261Z,11.60
2018-11-06T20:55:20.687Z,11.60
2018-11-06T20:57:49.983Z,11.60
2018-11-06T21:00:22.419Z,11.60
2018-11-06T21:02:53.451Z,11.60
2018-11-06T21:05:22.803Z,11.50
2018-11-06T21:07:52.176Z,11.50
2018-11-06T21:10:26.939Z,11.50
2018-11-06T21:12:56.273Z,11.50
2018-11-06T21:15:25.538Z,11.40
2018-11-06T21:17:54.931Z,11.30
2018-11-06T21:20:24.204Z,11.10
2018-11-06T21:22:53.343Z,11.10
2018-11-06T21:25:22.693Z,11.30
2018-11-06T21:27:51.897Z,11.30
2018-11-06T21:30:21.774Z,11.40
2018-11-06T21:32:52.187Z,11.20
2018-11-06T21:35:21.465Z,11.10
2018-11-06T21:37:50.751Z,11.30
2018-11-06T21:40:21.067Z,11.30
2018-11-06T21:42:50.885Z,11.30
2018-11-06T21:45:20.220Z,11.30
2018-11-06T21:47:50.311Z,11.30
2018-11-06T21:50:19.850Z,11.10
2018-11-06T21:52:49.094Z,10.90
2018-11-06T21:55:19.230Z,10.90
2018-11-06T21:57:48.506Z,10.70
2018-11-06T22:00:19.856Z,10.50
2018-11-06T22:02:49.175Z,10.40
2018-11-06T22:05:19.726Z,10.40
2018-11-06T22:07:49.204Z,10.40
2018-11-06T22:10:19.764Z,10.60
2018-11-06T22:12:49.062Z,10.70
2018-11-06T22:15:19.176Z,10.60
2018-11-06T22:17:48.455Z,10.50
2018-11-06T22:20:18.894Z,10.60
2018-11-06T22:22:48.626Z,10.80
2018-11-06T22:25:17.893Z,10.70
2018-11-06T22:27:47.147Z,10.80
2018-11-06T22:30:17.070Z,10.90
2018-11-06T22:32:46.765Z,10.90
2018-11-06T22:35:17.093Z,10.90
2018-11-06T22:37:46.340Z,10.70
2018-11-06T22:40:16.630Z,10.70
2018-11-06T22:42:45.965Z,10.60
2018-11-06T22:45:16.331Z,10.60
2018-11-06T22:47:45.563Z,10.50
2018-11-06T22:50:16.039Z,10.60
2018-11-06T22:52:46.171Z,10.70
2018-11-06T22:55:15.518Z,10.40
2018-11-06T22:57:44.982Z,10.50
2018-11-06T23:00:17.796Z,10.60
2018-11-06T23:02:47.060Z,10.50
2018-11-06T23:05:16.311Z,10.60
2018-11-06T23:07:50.890Z,10.60
2018-11-06T23:10:20.159Z,10.70
2018-11-06T23:12:49.406Z,10.90
2018-11-06T23:15:18.745Z,10.80
2018-11-06T23:17:48.122Z,10.90
2018-11-06T23:20:17.391Z,11.00
2018-11-06T23:22:46.670Z,11.00
2018-11-06T23:25:15.915Z,11.00
2018-11-06T23:27:45.135Z,11.00
2018-11-06T23:30:15.141Z,11.00
2018-11-06T23:32:44.471Z,11.00
2018-11-06T23:35:13.711Z,11.10
2018-11-06T23:37:42.960Z,10.80
2018-11-06T23:40:12.221Z,10.70
2018-11-06T23:42:41.998Z,10.60
2018-11-06T23:45:11.254Z,10.50
2018-11-06T23:47:40.486Z,10.30
2018-11-06T23:50:10.425Z,10.10
2018-11-06T23:52:40.124Z,10.20
2018-11-06T23:55:09.777Z,10.40
2018-11-06T23:57:39.139Z,10.60
